createdAt,value
2018-05-06T00:00:05.313Z,75.03
2018-05-06T00:01:05.427Z,75.13
2018-05-06T00:02:05.370Z,74.65
2018-05-06T00:03:05.384Z,74.26
2018-05-06T00:04:05.399Z,74.74
2018-05-06T00:05:05.415Z,74.68
2018-05-06T00:06:05.516Z,74.68
2018-05-06T00:07:05.444Z,74.68
2018-05-06T00:08:05.440Z,74.68
2018-05-06T00:09:05.453Z,74.55
2018-05-06T00:10:05.462Z,75.13
2018-05-06T00:11:05.578Z,74.49
2018-05-06T00:12:05.524Z,74.68
2018-05-06T00:13:05.532Z,75.36
2018-05-06T00:14:05.564Z,74.68
2018-05-06T00:15:05.558Z,74.26
2018-05-06T00:16:05.564Z,74.20
2018-05-06T00:17:05.730Z,74.20
2018-05-06T00:18:05.623Z,74.68
2018-05-06T00:19:05.606Z,74.40
2018-05-06T00:20:05.658Z,74.78
2018-05-06T00:21:05.659Z,74.30
2018-05-06T00:22:05.776Z,74.49
2018-05-06T00:23:05.695Z,74.58
2018-05-06T00:24:05.719Z,74.40
2018-05-06T00:25:05.736Z,74.49
2018-05-06T00:26:05.751Z,73.82
2018-05-06T00:27:05.843Z,73.72
2018-05-06T00:28:05.765Z,73.91
2018-05-06T00:29:05.779Z,74.10
2018-05-06T00:30:05.803Z,74.68
2018-05-06T00:31:05.832Z,74.20
2018-05-06T00:32:05.932Z,74.40
2018-05-06T00:33:05.862Z,74.65
2018-05-06T00:34:05.857Z,74.55
2018-05-06T00:35:05.872Z,75.07
2018-05-06T00:36:05.909Z,75.26
2018-05-06T00:37:06.002Z,75.36
2018-05-06T00:38:05.941Z,75.55
2018-05-06T00:39:05.944Z,75.74
2018-05-06T00:40:05.960Z,75.16
2018-05-06T00:41:05.963Z,75.45
2018-05-06T00:42:06.087Z,75.74
2018-05-06T00:43:06.021Z,76.03
2018-05-06T00:44:06.012Z,76.28
2018-05-06T00:45:06.053Z,75.55
2018-05-06T00:46:06.055Z,75.45
2018-05-06T00:47:06.162Z,76.61
2018-05-06T00:48:06.093Z,75.93
2018-05-06T00:49:06.104Z,76.18
2018-05-06T00:50:06.108Z,76.57
2018-05-06T00:51:06.153Z,76.96
2018-05-06T00:52:06.254Z,77.25
2018-05-06T00:53:06.170Z,77.92
2018-05-06T00:54:06.176Z,77.53
2018-05-06T00:55:06.200Z,78.31
2018-05-06T00:56:06.198Z,78.02
2018-05-06T00:57:06.356Z,78.88
2018-05-06T00:58:06.262Z,78.50
2018-05-06T00:59:06.253Z,78.69
2018-05-06T01:00:06.300Z,78.79
2018-05-06T01:01:06.308Z,79.08
2018-05-06T01:02:06.398Z,79.46
2018-05-06T01:03:06.339Z,79.46
2018-05-06T01:04:06.359Z,79.75
2018-05-06T01:05:06.362Z,80.23
2018-05-06T01:06:06.358Z,80.71
2018-05-06T01:07:06.505Z,81.29
2018-05-06T01:08:06.418Z,81.48
2018-05-06T01:09:06.417Z,82.35
2018-05-06T01:10:06.425Z,82.26
2018-05-06T01:11:06.491Z,82.35
2018-05-06T01:12:06.554Z,81.96
2018-05-06T01:13:06.472Z,82.26
2018-05-06T01:14:06.513Z,82.26
2018-05-06T01:15:06.504Z,81.87
2018-05-06T01:16:06.520Z,82.06
2018-05-06T01:17:06.564Z,82.35
2018-05-06T01:18:06.685Z,82.35
2018-05-06T01:19:06.564Z,83.12
2018-05-06T01:20:06.611Z,83.12
2018-05-06T01:21:06.615Z,83.03
2018-05-06T01:22:06.614Z,83.41
2018-05-06T01:23:06.740Z,83.12
2018-05-06T01:24:06.645Z,82.26
2018-05-06T01:25:06.665Z,81.83
2018-05-06T01:26:06.678Z,82.60
2018-05-06T01:27:06.697Z,82.98
2018-05-06T01:28:06.813Z,83.70
2018-05-06T01:29:06.726Z,83.28
2018-05-06T01:30:06.768Z,83.18
2018-05-06T01:31:06.758Z,83.47
2018-05-06T01:32:06.772Z,83.08
2018-05-06T01:33:06.918Z,83.75
2018-05-06T01:34:06.832Z,83.47
2018-05-06T01:35:06.825Z,82.93
2018-05-06T01:36:06.836Z,82.89
2018-05-06T01:37:06.881Z,83.66
2018-05-06T01:38:06.966Z,84.23
2018-05-06T01:39:06.883Z,85.30
2018-05-06T01:40:06.899Z,85.49
2018-05-06T01:41:06.929Z,85.39
2018-05-06T01:42:06.935Z,85.39
2018-05-06T01:43:07.075Z,85.39
2018-05-06T01:44:06.961Z,85.58
2018-05-06T01:45:06.973Z,85.49
2018-05-06T01:46:06.991Z,85.87
2018-05-06T01:47:07.005Z,86.65
2018-05-06T01:48:07.128Z,85.97
2018-05-06T01:49:07.075Z,85.87
2018-05-06T01:50:07.054Z,86.07
2018-05-06T01:51:07.074Z,86.26
2018-05-06T01:52:07.085Z,85.58
2018-05-06T01:53:07.236Z,85.30
2018-05-06T01:54:07.144Z,86.41
2018-05-06T01:55:07.161Z,87.76
2018-05-06T01:56:07.149Z,89.49
2018-05-06T01:57:07.183Z,90.35
2018-05-06T01:58:07.289Z,89.68
2018-05-06T01:59:07.199Z,89.68
2018-05-06T02:00:07.223Z,88.24
2018-05-06T02:01:07.227Z,88.24
2018-05-06T02:02:07.277Z,88.62
2018-05-06T02:03:07.384Z,87.56
2018-05-06T02:04:07.301Z,87.46
2018-05-06T02:05:07.299Z,87.70
2018-05-06T02:06:07.333Z,87.18
2018-05-06T02:07:07.323Z,86.69
2018-05-06T02:08:07.436Z,86.35
2018-05-06T02:09:07.383Z,86.35
2018-05-06T02:10:07.385Z,86.45
2018-05-06T02:11:07.387Z,86.74
2018-05-06T02:12:07.398Z,87.22
2018-05-06T02:13:07.525Z,85.97
2018-05-06T02:14:07.434Z,86.26
2018-05-06T02:15:07.451Z,85.49
2018-05-06T02:16:07.488Z,84.91
2018-05-06T02:17:07.480Z,84.05
2018-05-06T02:18:07.519Z,84.14
2018-05-06T02:19:07.622Z,84.14
2018-05-06T02:20:07.538Z,84.05
2018-05-06T02:21:07.547Z,83.66
2018-05-06T02:22:07.564Z,83.47
2018-05-06T02:23:07.583Z,83.47
2018-05-06T02:24:07.717Z,83.47
2018-05-06T02:25:07.630Z,83.56
2018-05-06T02:26:07.626Z,83.28
2018-05-06T02:27:07.661Z,83.47
2018-05-06T02:28:07.647Z,82.79
2018-05-06T02:29:07.793Z,82.98
2018-05-06T02:30:07.746Z,83.08
2018-05-06T02:31:07.712Z,82.89
2018-05-06T02:32:07.742Z,82.79
2018-05-06T02:33:07.742Z,82.60
2018-05-06T02:34:07.878Z,82.98
2018-05-06T02:35:07.789Z,83.66
2018-05-06T02:36:07.780Z,83.08
2018-05-06T02:37:07.809Z,84.19
2018-05-06T02:38:07.812Z,84.97
2018-05-06T02:39:07.952Z,86.12
2018-05-06T02:40:07.841Z,86.02
2018-05-06T02:41:07.881Z,86.79
2018-05-06T02:42:07.873Z,86.89
2018-05-06T02:43:07.901Z,87.46
2018-05-06T02:44:08.032Z,87.27
2018-05-06T02:45:07.919Z,87.08
2018-05-06T02:46:07.945Z,88.14
2018-05-06T02:47:07.959Z,88.24
2018-05-06T02:48:07.967Z,88.81
2018-05-06T02:49:08.080Z,88.81
2018-05-06T02:50:08.007Z,88.71
2018-05-06T02:51:08.012Z,89.39
2018-05-06T02:52:08.026Z,89.39
2018-05-06T02:53:08.040Z,89.68
2018-05-06T02:54:08.184Z,90.35
2018-05-06T02:55:08.080Z,90.35
2018-05-06T02:56:08.092Z,91.13
2018-05-06T02:57:08.133Z,91.13
2018-05-06T02:58:08.135Z,90.93
2018-05-06T02:59:08.239Z,89.97
2018-05-06T03:00:08.165Z,89.68
2018-05-06T03:01:08.192Z,89.97
2018-05-06T03:02:08.197Z,91.13
2018-05-06T03:03:08.229Z,91.70
2018-05-06T03:04:08.344Z,92.66
2018-05-06T03:05:08.262Z,92.38
2018-05-06T03:06:08.269Z,93.15
2018-05-06T03:07:08.288Z,92.76
2018-05-06T03:08:08.300Z,92.38
2018-05-06T03:09:08.395Z,93.15
2018-05-06T03:10:08.301Z,93.05
2018-05-06T03:11:08.318Z,93.53
2018-05-06T03:12:08.364Z,93.43
2018-05-06T03:13:08.366Z,93.53
2018-05-06T03:14:08.472Z,93.33
2018-05-06T03:15:08.412Z,93.72
2018-05-06T03:16:08.398Z,93.43
2018-05-06T03:17:08.438Z,93.33
2018-05-06T03:18:08.440Z,93.62
2018-05-06T03:19:08.571Z,93.43
2018-05-06T03:20:08.486Z,93.24
2018-05-06T03:21:08.484Z,93.05
2018-05-06T03:22:08.519Z,92.85
2018-05-06T03:23:08.521Z,92.85
2018-05-06T03:24:08.687Z,92.76
2018-05-06T03:25:08.540Z,92.66
2018-05-06T03:26:08.602Z,92.95
2018-05-06T03:27:08.596Z,93.05
2018-05-06T03:28:08.595Z,92.95
2018-05-06T03:29:08.702Z,93.24
2018-05-06T03:30:08.616Z,93.43
2018-05-06T03:31:08.633Z,93.43
2018-05-06T03:32:08.644Z,93.33
2018-05-06T03:33:08.663Z,93.05
2018-05-06T03:34:08.776Z,93.91
2018-05-06T03:35:08.701Z,94.49
2018-05-06T03:36:08.714Z,94.49
2018-05-06T03:37:08.747Z,94.20
2018-05-06T03:38:08.764Z,94.35
2018-05-06T03:39:08.856Z,94.49
2018-05-06T03:40:08.781Z,94.49
2018-05-06T03:41:08.811Z,95.17
2018-05-06T03:42:08.800Z,95.55
2018-05-06T03:43:08.847Z,95.60
2018-05-06T03:44:08.929Z,95.40
2018-05-06T03:45:08.846Z,95.79
2018-05-06T03:46:08.862Z,96.27
2018-05-06T03:47:08.877Z,96.27
2018-05-06T03:48:08.916Z,96.27
2018-05-06T03:49:09.032Z,95.70
2018-05-06T03:50:08.952Z,95.89
2018-05-06T03:51:08.940Z,96.08
2018-05-06T03:52:08.951Z,96.37
2018-05-06T03:53:08.995Z,96.37
2018-05-06T03:54:09.080Z,95.79
2018-05-06T03:55:08.993Z,96.03
2018-05-06T03:56:09.011Z,95.89
2018-05-06T03:57:09.051Z,95.98
2018-05-06T03:58:09.042Z,95.60
2018-05-06T03:59:09.237Z,95.79
2018-05-06T04:00:09.107Z,95.40
2018-05-06T04:01:09.089Z,96.08
2018-05-06T04:02:09.106Z,95.70
2018-05-06T04:03:09.145Z,95.70
2018-05-06T04:04:09.232Z,95.02
2018-05-06T04:05:09.187Z,95.50
2018-05-06T04:06:09.173Z,94.92
2018-05-06T04:07:09.178Z,94.92
2018-05-06T04:08:09.200Z,95.31
2018-05-06T04:09:09.310Z,95.98
2018-05-06T04:10:09.251Z,95.50
2018-05-06T04:11:09.267Z,95.21
2018-05-06T04:12:09.273Z,94.83
2018-05-06T04:13:09.284Z,95.36
2018-05-06T04:14:09.385Z,95.26
2018-05-06T04:15:09.327Z,95.45
2018-05-06T04:16:09.317Z,95.36
2018-05-06T04:17:09.346Z,96.70
2018-05-06T04:18:09.348Z,96.51
2018-05-06T04:19:09.457Z,96.03
2018-05-06T04:20:09.402Z,96.22
2018-05-06T04:21:09.490Z,95.65
2018-05-06T04:22:09.405Z,95.36
2018-05-06T04:23:09.444Z,95.07
2018-05-06T04:24:09.567Z,94.88
2018-05-06T04:25:09.452Z,94.59
2018-05-06T04:26:09.497Z,94.49
2018-05-06T04:27:09.488Z,95.45
2018-05-06T04:28:09.494Z,96.03
2018-05-06T04:29:09.663Z,96.90
2018-05-06T04:30:09.552Z,97.38
2018-05-06T04:31:09.536Z,97.47
2018-05-06T04:32:09.555Z,96.99
2018-05-06T04:33:09.578Z,96.80
2018-05-06T04:34:09.716Z,97.57
2018-05-06T04:35:09.628Z,97.47
2018-05-06T04:36:09.615Z,96.70
2018-05-06T04:37:09.661Z,96.70
2018-05-06T04:38:09.677Z,96.90
2018-05-06T04:39:09.772Z,97.09
2018-05-06T04:40:09.676Z,96.51
2018-05-06T04:41:09.716Z,96.47
2018-05-06T04:42:09.703Z,95.98
2018-05-06T04:43:09.718Z,95.40
2018-05-06T04:44:09.937Z,95.79
2018-05-06T04:45:09.779Z,96.27
2018-05-06T04:46:09.762Z,95.79
2018-05-06T04:47:09.780Z,96.47
2018-05-06T04:48:09.807Z,96.66
2018-05-06T04:49:09.923Z,97.33
2018-05-06T04:50:09.837Z,98.19
2018-05-06T04:51:09.862Z,98.19
2018-05-06T04:52:09.880Z,98.86
2018-05-06T04:53:09.879Z,99.73
2018-05-06T04:54:09.977Z,99.99
2018-05-06T04:55:09.922Z,99.99
2018-05-06T04:56:09.935Z,99.99
2018-05-06T05:00:39.245Z,99.99
2018-05-06T05:01:39.264Z,99.99
2018-05-06T05:02:39.287Z,99.99
2018-05-06T05:03:39.292Z,99.99
2018-05-06T05:04:39.471Z,99.99
2018-05-06T05:05:39.317Z,99.99
2018-05-06T05:06:39.362Z,99.99
2018-05-06T05:07:39.412Z,99.99
2018-05-06T05:08:39.425Z,99.99
2018-05-06T05:09:39.541Z,99.92
2018-05-06T05:10:39.581Z,99.99
2018-05-06T05:11:39.422Z,99.92
2018-05-06T05:12:39.428Z,99.35
2018-05-06T05:13:39.468Z,99.25
2018-05-06T05:14:39.457Z,99.06
2018-05-06T05:15:39.477Z,98.29
2018-05-06T05:16:39.588Z,98.29
2018-05-06T05:17:39.502Z,98.39
2018-05-06T05:18:39.515Z,98.58
2018-05-06T05:19:39.562Z,97.71
2018-05-06T05:20:39.542Z,98.29
2018-05-06T05:21:39.689Z,98.19
2018-05-06T05:22:39.573Z,98.77
2018-05-06T05:23:39.592Z,98.10
2018-05-06T05:24:39.601Z,98.58
2018-05-06T05:25:39.623Z,99.06
2018-05-06T05:26:39.746Z,99.35
2018-05-06T05:27:39.678Z,99.54
2018-05-06T05:28:39.689Z,99.99
2018-05-06T05:29:39.706Z,99.99
2018-05-06T05:30:39.704Z,99.99
2018-05-06T05:31:39.811Z,99.99
2018-05-06T05:32:39.717Z,99.99
2018-05-06T05:33:39.742Z,99.99
2018-05-06T05:34:39.816Z,99.99
2018-05-06T05:35:39.763Z,99.99
2018-05-06T05:36:39.933Z,99.99
2018-05-06T05:37:39.797Z,99.99
2018-05-06T05:38:39.837Z,99.99
2018-05-06T05:39:39.835Z,99.99
2018-05-06T05:40:39.841Z,99.99
2018-05-06T05:41:39.957Z,99.99
2018-05-06T05:42:39.864Z,99.99
2018-05-06T05:43:39.911Z,99.99
2018-05-06T05:44:39.907Z,99.99
2018-05-06T05:45:39.914Z,99.99
2018-05-06T05:46:40.026Z,99.99
2018-05-06T05:47:40.018Z,99.99
2018-05-06T05:48:39.980Z,99.99
2018-05-06T05:49:39.972Z,99.99
2018-05-06T05:50:39.986Z,99.99
2018-05-06T05:51:40.105Z,99.99
2018-05-06T05:52:40.028Z,99.99
2018-05-06T05:53:40.054Z,99.99
2018-05-06T05:54:40.068Z,99.99
2018-05-06T05:55:40.115Z,99.99
2018-05-06T05:56:40.222Z,99.99
2018-05-06T05:57:40.088Z,99.99
2018-05-06T05:58:40.093Z,99.99
2018-05-06T05:59:40.112Z,99.99
2018-05-06T06:00:40.155Z,99.99
2018-05-06T06:01:40.271Z,99.99
2018-05-06T06:02:40.187Z,99.99
2018-05-06T06:03:40.196Z,99.99
2018-05-06T06:04:40.188Z,99.99
2018-05-06T06:05:40.215Z,99.99
2018-05-06T06:06:40.310Z,99.99
2018-05-06T06:07:40.257Z,99.99
2018-05-06T06:08:40.259Z,99.99
2018-05-06T06:09:40.286Z,99.99
2018-05-06T06:10:40.273Z,99.99
2018-05-06T06:11:40.439Z,99.99
2018-05-06T06:12:40.317Z,99.99
2018-05-06T06:13:40.344Z,99.99
2018-05-06T06:14:40.358Z,99.99
2018-05-06T06:15:40.483Z,99.99
2018-05-06T06:16:40.385Z,99.99
2018-05-06T06:17:40.502Z,99.99
2018-05-06T06:18:40.402Z,99.99
2018-05-06T06:19:40.410Z,99.99
2018-05-06T06:20:40.446Z,99.99
2018-05-06T06:21:40.461Z,99.99
2018-05-06T06:22:40.461Z,99.99
2018-05-06T06:23:40.562Z,99.99
2018-05-06T06:24:40.558Z,99.99
2018-05-06T06:25:40.496Z,99.99
2018-05-06T06:26:40.503Z,99.99
2018-05-06T06:27:40.550Z,99.99
2018-05-06T06:28:40.634Z,99.99
2018-05-06T06:29:40.575Z,99.99
2018-05-06T06:30:40.557Z,99.99
2018-05-06T06:31:40.603Z,99.99
2018-05-06T06:32:40.614Z,99.99
2018-05-06T06:33:40.707Z,99.99
2018-05-06T06:34:40.620Z,99.99
2018-05-06T06:35:40.642Z,99.99
2018-05-06T06:36:40.647Z,99.99
2018-05-06T06:37:40.666Z,99.99
2018-05-06T06:38:40.805Z,99.99
2018-05-06T06:39:40.719Z,99.99
2018-05-06T06:40:40.703Z,99.99
2018-05-06T06:41:40.722Z,99.99
2018-05-06T06:42:40.735Z,99.99
2018-05-06T06:43:40.851Z,99.99
2018-05-06T06:44:40.792Z,99.99
2018-05-06T06:45:40.776Z,99.99
2018-05-06T06:46:40.794Z,99.99
2018-05-06T06:47:40.818Z,99.99
2018-05-06T06:48:40.936Z,99.99
2018-05-06T06:49:40.838Z,99.99
2018-05-06T06:50:40.852Z,99.99
2018-05-06T06:51:40.863Z,99.99
2018-05-06T06:52:40.903Z,99.99
2018-05-06T06:53:40.996Z,99.99
2018-05-06T06:54:40.902Z,99.99
2018-05-06T06:55:40.981Z,99.99
2018-05-06T06:56:40.963Z,99.99
2018-05-06T06:57:40.951Z,99.99
2018-05-06T06:58:41.091Z,99.99
2018-05-06T06:59:40.992Z,99.99
2018-05-06T07:00:40.991Z,99.99
2018-05-06T07:01:41.009Z,99.99
2018-05-06T07:02:41.045Z,99.99
2018-05-06T07:03:41.137Z,99.99
2018-05-06T07:04:41.047Z,99.99
2018-05-06T07:05:41.067Z,99.99
2018-05-06T07:06:41.104Z,99.99
2018-05-06T07:07:41.090Z,99.99
2018-05-06T07:08:41.208Z,99.99
2018-05-06T07:09:41.131Z,99.99
2018-05-06T07:10:41.135Z,99.99
2018-05-06T07:11:41.173Z,99.99
2018-05-06T07:12:41.180Z,99.99
2018-05-06T07:13:41.284Z,99.99
2018-05-06T07:14:41.218Z,99.99
2018-05-06T07:15:41.211Z,99.99
2018-05-06T07:16:41.239Z,99.99
2018-05-06T07:17:41.233Z,99.99
2018-05-06T07:18:41.345Z,99.99
2018-05-06T07:19:41.268Z,99.99
2018-05-06T07:20:41.283Z,99.99
2018-05-06T07:21:41.317Z,99.99
2018-05-06T07:22:41.336Z,99.99
2018-05-06T07:23:41.417Z,99.99
2018-05-06T07:24:41.349Z,99.99
2018-05-06T07:25:41.346Z,99.99
2018-05-06T07:26:41.362Z,99.99
2018-05-06T07:27:41.400Z,99.99
2018-05-06T07:28:41.392Z,99.99
2018-05-06T07:29:41.528Z,99.99
2018-05-06T07:30:41.415Z,99.99
2018-05-06T07:31:41.445Z,99.99
2018-05-06T07:32:41.456Z,99.99
2018-05-06T07:33:41.486Z,99.99
2018-05-06T07:34:41.574Z,99.99
2018-05-06T07:35:41.520Z,99.99
2018-05-06T07:36:41.495Z,99.99
2018-05-06T07:37:41.544Z,99.99
2018-05-06T07:38:41.527Z,99.99
2018-05-06T07:39:41.675Z,99.99
2018-05-06T07:40:41.555Z,99.99
2018-05-06T07:41:41.566Z,99.99
2018-05-06T07:42:41.600Z,99.99
2018-05-06T07:43:41.596Z,99.99
2018-05-06T07:44:41.716Z,99.99
2018-05-06T07:45:41.634Z,99.99
2018-05-06T07:46:41.647Z,99.99
2018-05-06T07:47:41.659Z,99.99
2018-05-06T07:48:41.695Z,99.99
2018-05-06T07:49:41.866Z,99.99
2018-05-06T07:50:41.699Z,99.99
2018-05-06T07:51:41.728Z,99.99
2018-05-06T07:52:41.752Z,99.99
2018-05-06T07:53:41.759Z,99.99
2018-05-06T07:54:41.853Z,99.99
2018-05-06T07:55:41.770Z,99.99
2018-05-06T07:56:41.790Z,99.99
2018-05-06T07:57:41.805Z,99.99
2018-05-06T07:58:41.849Z,99.99
2018-05-06T07:59:41.990Z,99.99
2018-05-06T08:00:41.858Z,99.99
2018-05-06T08:01:41.858Z,99.99
2018-05-06T08:02:41.901Z,99.99
2018-05-06T08:03:41.911Z,99.99
2018-05-06T08:04:41.997Z,99.99
2018-05-06T08:05:41.927Z,99.99
2018-05-06T08:06:41.927Z,99.99
2018-05-06T08:07:41.965Z,99.99
2018-05-06T08:08:41.954Z,99.99
2018-05-06T08:09:42.069Z,99.99
2018-05-06T08:10:42.063Z,99.99
2018-05-06T08:11:42.030Z,99.99
2018-05-06T08:12:42.014Z,99.99
2018-05-06T08:13:42.031Z,99.99
2018-05-06T08:14:42.143Z,99.99
2018-05-06T08:15:42.091Z,99.99
2018-05-06T08:16:42.186Z,99.99
2018-05-06T08:17:42.084Z,99.99
2018-05-06T08:18:42.102Z,99.99
2018-05-06T08:19:42.216Z,99.99
2018-05-06T08:20:42.155Z,99.99
2018-05-06T08:21:42.142Z,99.99
2018-05-06T08:22:42.160Z,99.99
2018-05-06T08:23:42.186Z,99.99
2018-05-06T08:24:42.309Z,99.99
2018-05-06T08:25:42.229Z,99.99
2018-05-06T08:26:42.225Z,99.99
2018-05-06T08:27:42.231Z,99.99
2018-05-06T08:28:42.240Z,99.99
2018-05-06T08:29:42.384Z,99.99
2018-05-06T08:30:42.275Z,99.99
2018-05-06T08:31:42.281Z,99.99
2018-05-06T08:32:42.300Z,99.99
2018-05-06T08:33:42.311Z,99.99
2018-05-06T08:34:42.436Z,99.99
2018-05-06T08:35:42.372Z,99.99
2018-05-06T08:36:42.367Z,99.99
2018-05-06T08:37:42.451Z,99.99
2018-05-06T08:38:42.391Z,99.99
2018-05-06T08:39:42.402Z,99.99
2018-05-06T08:40:42.525Z,99.99
2018-05-06T08:41:42.447Z,99.99
2018-05-06T08:42:42.458Z,99.99
2018-05-06T08:43:42.473Z,99.99
2018-05-06T08:44:42.481Z,99.99
2018-05-06T08:45:42.618Z,99.99
2018-05-06T08:46:42.504Z,99.99
2018-05-06T08:47:42.548Z,99.99
2018-05-06T08:48:42.560Z,99.99
2018-05-06T08:49:42.583Z,99.99
2018-05-06T08:50:42.744Z,99.99
2018-05-06T08:51:42.581Z,99.99
2018-05-06T08:52:42.594Z,99.99
2018-05-06T08:53:42.624Z,99.99
2018-05-06T08:54:42.629Z,99.99
2018-05-06T08:55:42.736Z,99.99
2018-05-06T08:56:42.651Z,99.99
2018-05-06T08:57:42.691Z,99.99
2018-05-06T08:58:42.679Z,99.99
2018-05-06T08:59:42.789Z,99.99
2018-05-06T09:00:42.811Z,99.99
2018-05-06T09:01:42.727Z,99.99
2018-05-06T09:02:42.738Z,99.99
2018-05-06T09:03:42.783Z,99.99
2018-05-06T09:04:42.795Z,99.99
2018-05-06T09:05:42.906Z,99.99
2018-05-06T09:06:42.794Z,99.99
2018-05-06T09:07:42.812Z,99.99
2018-05-06T09:08:42.828Z,99.99
2018-05-06T09:09:42.841Z,99.99
2018-05-06T09:10:42.954Z,99.99
2018-05-06T09:11:42.893Z,99.99
2018-05-06T09:12:42.883Z,99.99
2018-05-06T09:13:42.892Z,99.99
2018-05-06T09:14:42.937Z,99.99
2018-05-06T09:15:43.099Z,99.99
2018-05-06T09:16:42.964Z,99.99
2018-05-06T09:17:42.974Z,99.99
2018-05-06T09:18:42.966Z,99.99
2018-05-06T09:19:43.100Z,99.78
2018-05-06T09:20:43.120Z,99.97
2018-05-06T09:21:43.014Z,99.68
2018-05-06T09:22:43.035Z,99.20
2018-05-06T09:23:43.041Z,98.91
2018-05-06T09:24:43.082Z,99.10
2018-05-06T09:25:43.297Z,98.63
2018-05-06T09:26:43.100Z,98.63
2018-05-06T09:27:43.124Z,99.01
2018-05-06T09:28:43.109Z,98.43
2018-05-06T09:29:43.158Z,98.63
2018-05-06T09:30:43.319Z,98.63
2018-05-06T09:31:43.181Z,99.30
2018-05-06T09:32:43.179Z,98.91
2018-05-06T09:33:43.189Z,98.72
2018-05-06T09:34:43.200Z,98.43
2018-05-06T09:35:43.317Z,97.96
2018-05-06T09:36:43.232Z,97.47
2018-05-06T09:37:43.309Z,97.66
2018-05-06T09:38:43.286Z,97.66
2018-05-06T09:39:43.298Z,97.09
2018-05-06T09:40:43.408Z,96.89
2018-05-06T09:41:43.310Z,96.51
2018-05-06T09:42:43.339Z,96.61
2018-05-06T09:43:43.353Z,96.42
2018-05-06T09:44:43.341Z,96.51
2018-05-06T09:45:43.378Z,96.61
2018-05-06T09:46:43.497Z,96.61
2018-05-06T09:47:43.438Z,96.22
2018-05-06T09:48:43.431Z,96.03
2018-05-06T09:49:43.425Z,95.75
2018-05-06T09:50:43.429Z,96.03
2018-05-06T09:51:43.594Z,95.75
2018-05-06T09:52:43.485Z,96.22
2018-05-06T09:53:43.493Z,96.32
2018-05-06T09:54:43.484Z,96.61
2018-05-06T09:55:43.504Z,96.51
2018-05-06T09:56:43.620Z,96.13
2018-05-06T09:57:43.532Z,96.03
2018-05-06T09:58:43.554Z,96.99
2018-05-06T09:59:43.570Z,96.70
2018-05-06T10:00:43.598Z,96.61
2018-05-06T10:01:43.685Z,96.61
2018-05-06T10:02:43.607Z,96.61
2018-05-06T10:03:43.624Z,96.32
2018-05-06T10:04:43.739Z,96.70
2018-05-06T10:05:43.671Z,96.70
2018-05-06T10:06:43.771Z,97.19
2018-05-06T10:07:43.697Z,97.09
2018-05-06T10:08:43.686Z,97.47
2018-05-06T10:09:43.701Z,96.99
2018-05-06T10:10:43.718Z,96.70
2018-05-06T10:11:43.857Z,96.32
2018-05-06T10:12:43.748Z,96.42
2018-05-06T10:13:43.769Z,96.22
2018-05-06T10:14:43.775Z,96.32
2018-05-06T10:15:43.795Z,96.32
2018-05-06T10:16:43.930Z,96.51
2018-05-06T10:17:43.845Z,96.42
2018-05-06T10:18:43.833Z,96.27
2018-05-06T10:19:43.860Z,95.79
2018-05-06T10:20:43.864Z,95.70
2018-05-06T10:21:44.001Z,95.21
2018-05-06T10:22:43.891Z,95.79
2018-05-06T10:23:43.908Z,95.89
2018-05-06T10:24:43.993Z,95.60
2018-05-06T10:25:43.939Z,95.36
2018-05-06T10:26:44.079Z,95.45
2018-05-06T10:27:43.976Z,93.91
2018-05-06T10:28:43.980Z,94.30
2018-05-06T10:29:43.995Z,93.44
2018-05-06T10:30:44.013Z,92.96
2018-05-06T10:31:44.143Z,93.34
2018-05-06T10:32:44.039Z,93.24
2018-05-06T10:33:44.080Z,92.57
2018-05-06T10:34:44.073Z,92.04
2018-05-06T10:35:44.119Z,92.04
2018-05-06T10:36:44.235Z,92.23
2018-05-06T10:37:44.142Z,91.85
2018-05-06T10:38:44.132Z,92.04
2018-05-06T10:39:44.160Z,91.75
2018-05-06T10:40:44.168Z,90.89
2018-05-06T10:41:44.279Z,88.91
2018-05-06T10:42:44.197Z,87.18
2018-05-06T10:43:44.223Z,86.75
2018-05-06T10:44:44.228Z,86.02
2018-05-06T10:45:44.272Z,85.83
2018-05-06T10:46:44.370Z,85.16
2018-05-06T10:47:44.288Z,85.16
2018-05-06T10:48:44.301Z,84.97
2018-05-06T10:49:44.322Z,83.04
2018-05-06T10:50:44.333Z,81.98
2018-05-06T10:51:44.349Z,82.17
2018-05-06T10:52:44.462Z,81.83
2018-05-06T10:53:44.391Z,80.77
2018-05-06T10:54:44.417Z,81.35
2018-05-06T10:55:44.408Z,79.86
2018-05-06T10:56:44.454Z,80.48
2018-05-06T10:57:44.538Z,80.58
2018-05-06T10:58:44.458Z,80.87
2018-05-06T10:59:44.504Z,80.87
2018-05-06T11:00:44.519Z,81.45
2018-05-06T11:01:44.537Z,80.96
2018-05-06T11:02:44.625Z,80.19
2018-05-06T11:03:44.539Z,80.87
2018-05-06T11:04:44.583Z,80.77
2018-05-06T11:05:44.582Z,80.77
2018-05-06T11:06:44.618Z,79.90
2018-05-06T11:07:44.783Z,79.52
2018-05-06T11:08:44.625Z,79.61
2018-05-06T11:09:44.666Z,79.23
2018-05-06T11:10:44.653Z,77.78
2018-05-06T11:11:44.697Z,78.85
2018-05-06T11:12:44.795Z,77.69
2018-05-06T11:13:44.709Z,77.21
2018-05-06T11:14:44.756Z,77.78
2018-05-06T11:15:44.770Z,78.56
2018-05-06T11:16:44.760Z,78.65
2018-05-06T11:17:44.882Z,78.94
2018-05-06T11:18:44.794Z,76.92
2018-05-06T11:19:44.836Z,77.25
2018-05-06T11:20:44.826Z,76.48
2018-05-06T11:21:44.865Z,77.06
2018-05-06T11:22:44.970Z,77.15
2018-05-06T11:23:44.878Z,76.86
2018-05-06T11:24:44.903Z,75.61
2018-05-06T11:25:44.935Z,76.09
2018-05-06T11:26:44.954Z,75.61
2018-05-06T11:27:45.043Z,75.80
2018-05-06T11:28:44.960Z,74.16
2018-05-06T11:29:44.977Z,72.24
2018-05-06T11:30:45.027Z,70.44
2018-05-06T11:31:45.011Z,71.02
2018-05-06T11:32:45.123Z,70.54
2018-05-06T11:33:45.051Z,72.27
2018-05-06T11:34:45.093Z,70.83
2018-05-06T11:35:45.151Z,69.87
2018-05-06T11:36:45.127Z,70.35
2018-05-06T11:37:45.214Z,70.28
2018-05-06T11:38:45.158Z,70.19
2018-05-06T11:39:45.153Z,69.23
2018-05-06T11:40:45.171Z,67.04
2018-05-06T11:41:45.198Z,65.20
2018-05-06T11:42:45.304Z,64.72
2018-05-06T11:43:45.221Z,63.76
2018-05-06T11:44:45.242Z,63.21
2018-05-06T11:45:45.270Z,63.12
2018-05-06T11:46:45.280Z,61.77
2018-05-06T11:47:45.446Z,61.67
2018-05-06T11:48:45.339Z,61.38
2018-05-06T11:49:45.349Z,61.38
2018-05-06T11:50:45.353Z,61.28
2018-05-06T11:51:45.376Z,60.31
2018-05-06T11:52:45.516Z,59.74
2018-05-06T11:53:45.409Z,59.35
2018-05-06T11:54:45.436Z,58.55
2018-05-06T11:55:45.471Z,59.71
2018-05-06T11:56:45.491Z,60.68
2018-05-06T11:57:45.608Z,58.26
2018-05-06T11:58:45.502Z,58.65
2018-05-06T11:59:45.546Z,58.84
2018-05-06T12:00:45.640Z,59.32
2018-05-06T12:01:45.551Z,58.84
2018-05-06T12:02:45.700Z,60.19
2018-05-06T12:03:45.617Z,58.00
2018-05-06T12:04:45.609Z,57.42
2018-05-06T12:05:45.627Z,56.16
2018-05-06T12:06:45.675Z,57.52
2018-05-06T12:07:45.823Z,56.07
2018-05-06T12:08:45.696Z,56.39
2018-05-06T12:09:45.707Z,56.20
2018-05-06T12:10:45.733Z,56.39
2018-05-06T12:11:45.741Z,55.81
2018-05-06T12:12:45.926Z,55.49
2018-05-06T12:13:45.815Z,55.68
2018-05-06T12:14:45.795Z,57.04
2018-05-06T12:15:45.818Z,55.78
2018-05-06T12:16:45.853Z,56.36
2018-05-06T12:17:45.956Z,56.07
2018-05-06T12:18:45.903Z,57.39
2018-05-06T12:19:45.897Z,57.97
2018-05-06T12:20:45.948Z,57.68
2018-05-06T12:21:45.937Z,57.87
2018-05-06T12:22:46.053Z,58.07
2018-05-06T12:23:45.997Z,58.45
2018-05-06T12:24:45.986Z,57.39
2018-05-06T12:25:46.014Z,58.45
2018-05-06T12:26:46.049Z,58.07
2018-05-06T12:27:46.158Z,57.90
2018-05-06T12:28:46.073Z,58.10
2018-05-06T12:29:46.117Z,56.46
2018-05-06T12:30:46.125Z,55.68
2018-05-06T12:31:46.130Z,54.27
2018-05-06T12:32:46.275Z,53.71
2018-05-06T12:33:46.202Z,52.17
2018-05-06T12:34:46.216Z,50.07
2018-05-06T12:35:46.207Z,48.23
2018-05-06T12:36:46.245Z,47.96
2018-05-06T12:37:46.437Z,46.51
2018-05-06T12:38:46.281Z,45.64
2018-05-06T12:39:46.291Z,45.54
2018-05-06T12:40:46.339Z,45.54
2018-05-06T12:41:46.359Z,44.57
2018-05-06T12:42:46.478Z,44.21
2018-05-06T12:43:46.401Z,44.70
2018-05-06T12:44:46.394Z,44.02
2018-05-06T12:45:46.419Z,43.54
2018-05-06T12:46:46.445Z,42.76
2018-05-06T12:47:46.566Z,43.63
2018-05-06T12:48:46.477Z,43.54
2018-05-06T12:49:46.502Z,43.92
2018-05-06T12:50:46.521Z,42.76
2018-05-06T12:51:46.541Z,42.30
2018-05-06T12:52:46.692Z,42.40
2018-05-06T12:53:46.612Z,42.49
2018-05-06T12:54:46.612Z,42.68
2018-05-06T12:55:46.652Z,42.97